Pagrindinis puslapis
METAR-TAF:

METAR-TAF

Oro uostai :

Kuritiba, Parana, Brazilija

platuma: 25-26S, ilguma: 049-16W, Aukštis: 924 m

Dabartinis oras

Ataskaita buvo paskelbta 4 valandos ir 51 minutes, ne 17:00 UTC
Vėjas 6 kt iš Rytų
Temperatūra 8°C
Drėgmė 87%
Slėgis 1021 hPa
Matomumas 10 km arba daugiau
Mažai debesys ne aukštis 400 ft
Su prošvaistėmis ne aukštis 700 ft

METAR: SBBI 211700Z 10006KT 9999 FEW004 BKN007 08/06 Q1021

Laikas: 18:51 (21:51 UTC)

Prognozė

Ataskaita buvo paskelbta 6 valandos ir 21 minutes, ne 15:30 UTC
Prognozė galioja nuo 21 metu 18 UTC su 22 metu 06 UTC
Vėjas 6 kt iš Rytų/Pietryčių
Matomumas 10 km arba daugiau
Su prošvaistėmis ne aukštis 900 ft
Tapsmas
nuo 21 metu 20 UTC su 21 metu 22 UTC
Matomumas: 8000 m
Su prošvaistėmis ne aukštis 500 ft
Tapsmas
nuo 21 metu 23 UTC su 22 metu 01 UTC
Matomumas: 5000 m
Apsiniaukę ne aukštis 400 ft
rūkana

TAF: SBBI 211530Z 2118/2206 11006KT 9999 BKN009 TX10/2118Z TN07/2206Z BECMG 2120/2122 8000 BKN005 BECMG 2123/2201 5000 BR OVC004 RMK PER

Orai ataskaitas ir orų prognozės (METAR, TAF).

turimą stotys yra geltonos ir raudonos taškus žemėlapyje.

Perkelti pele per norėdami pamatyti stoties vardą.

Tada spustelėkite, norėdami matyti oro stebėjimo ir prognozės.

Norėdami pakeisti žemėlapį: spustelėkite ant žalios mygtukų su juodo kryžiaus žemyn,; žalią mygtuką su brūkšneliu, jei norite nutolinti; arba žalių rodyklių gretimoms žemėlapius.


METAR-TAF: